createdAt,value
2018-07-03T00:01:08.953Z,99607.00
2018-07-03T00:03:13.407Z,99615.00
2018-07-03T00:05:17.897Z,99607.00
2018-07-03T00:07:22.343Z,99616.00
2018-07-03T00:09:27.613Z,99618.00
2018-07-03T00:11:32.047Z,99616.00
2018-07-03T00:13:42.164Z,99615.00
2018-07-03T00:15:46.592Z,99620.00
2018-07-03T00:17:51.035Z,99621.00
2018-07-03T00:19:55.496Z,99618.00
2018-07-03T00:22:00.051Z,99621.00
2018-07-03T00:24:04.575Z,99619.00
2018-07-03T00:26:09.008Z,99615.00
2018-07-03T00:28:13.501Z,99607.00
2018-07-03T00:30:17.957Z,99610.00
2018-07-03T00:32:22.422Z,99615.00
2018-07-03T00:34:27.793Z,99599.00
2018-07-03T00:36:32.232Z,99611.00
2018-07-03T00:38:36.654Z,99604.00
2018-07-03T00:40:41.108Z,99606.00
2018-07-03T00:42:45.583Z,99615.00
2018-07-03T00:44:50.048Z,99612.00
2018-07-03T00:46:54.450Z,99608.00
2018-07-03T00:48:58.964Z,99606.00
2018-07-03T00:51:03.840Z,99607.00
2018-07-03T00:53:08.518Z,99602.00
2018-07-03T00:55:13.223Z,99598.00
2018-07-03T00:57:17.643Z,99608.00
2018-07-03T00:59:22.075Z,99599.00
2018-07-03T01:01:27.406Z,99601.00
2018-07-03T01:03:32.258Z,99601.00
2018-07-03T01:05:37.478Z,99607.00
2018-07-03T01:07:42.173Z,99601.00
2018-07-03T01:09:49.031Z,99595.00
2018-07-03T01:11:54.039Z,99595.00
2018-07-03T01:13:59.684Z,99599.00
2018-07-03T01:16:04.659Z,99592.00
2018-07-03T01:18:09.326Z,99598.00
2018-07-03T01:20:13.834Z,99599.00
2018-07-03T01:22:19.345Z,99595.00
2018-07-03T01:24:24.348Z,99587.00
2018-07-03T01:26:29.393Z,99586.00
2018-07-03T01:28:34.256Z,99582.00
2018-07-03T01:30:39.476Z,99593.00
2018-07-03T01:32:45.091Z,99593.00
2018-07-03T01:34:50.061Z,99590.00
2018-07-03T01:36:54.837Z,99590.00
2018-07-03T01:38:59.596Z,99596.00
2018-07-03T01:41:04.199Z,99601.00
2018-07-03T01:43:10.913Z,99591.00
2018-07-03T01:45:16.341Z,99596.00
2018-07-03T01:47:22.429Z,99591.00
2018-07-03T01:49:28.422Z,99594.00
2018-07-03T01:51:33.666Z,99602.00
2018-07-03T01:53:38.453Z,99593.00
2018-07-03T01:55:43.643Z,99599.00
2018-07-03T01:57:48.370Z,99594.00
2018-07-03T01:59:52.854Z,99591.00
2018-07-03T02:01:57.362Z,99583.00
2018-07-03T02:04:01.860Z,99587.00
2018-07-03T02:06:06.585Z,99582.00
2018-07-03T02:08:11.500Z,99585.00
2018-07-03T02:10:15.991Z,99587.00
2018-07-03T02:12:20.531Z,99588.00
2018-07-03T02:14:25.014Z,99582.00
2018-07-03T02:16:30.131Z,99578.00
2018-07-03T02:18:34.733Z,99579.00
2018-07-03T02:20:39.476Z,99575.00
2018-07-03T02:22:44.161Z,99590.00
2018-07-03T02:24:48.833Z,99583.00
2018-07-03T02:26:53.281Z,99581.00
2018-07-03T02:28:58.026Z,99581.00
2018-07-03T02:31:02.585Z,99581.00
2018-07-03T02:33:07.087Z,99575.00
2018-07-03T02:35:11.817Z,99570.00
2018-07-03T02:37:16.257Z,99583.00
2018-07-03T02:39:20.687Z,99577.00
2018-07-03T02:41:25.169Z,99574.00
2018-07-03T02:43:30.226Z,99572.00
2018-07-03T02:45:35.305Z,99570.00
2018-07-03T02:47:39.724Z,99574.00
2018-07-03T02:49:44.209Z,99580.00
2018-07-03T02:51:48.701Z,99568.00
2018-07-03T02:53:53.156Z,99580.00
2018-07-03T02:55:57.972Z,99568.00
2018-07-03T02:58:02.536Z,99572.00
2018-07-03T03:00:07.645Z,99571.00
2018-07-03T03:02:12.166Z,99572.00
2018-07-03T03:04:16.626Z,99570.00
2018-07-03T03:06:20.768Z,99574.00
2018-07-03T03:08:26.137Z,99579.00
2018-07-03T03:10:30.647Z,99576.00
2018-07-03T03:12:35.130Z,99579.00
2018-07-03T03:14:39.558Z,99571.00
2018-07-03T03:16:44.006Z,99572.00
2018-07-03T03:18:48.496Z,99575.00
2018-07-03T03:20:52.979Z,99570.00
2018-07-03T03:22:57.478Z,99574.00
2018-07-03T03:25:01.966Z,99561.00
2018-07-03T03:27:06.493Z,99566.00
2018-07-03T03:29:10.930Z,99566.00
2018-07-03T03:31:15.431Z,99557.00
2018-07-03T03:33:19.914Z,99565.00
2018-07-03T03:35:24.434Z,99570.00
2018-07-03T03:37:28.946Z,99567.00
2018-07-03T03:39:33.359Z,99563.00
2018-07-03T03:41:37.946Z,99567.00
2018-07-03T03:43:42.449Z,99569.00
2018-07-03T03:45:46.885Z,99567.00
2018-07-03T03:47:51.352Z,99571.00
2018-07-03T03:49:55.806Z,99563.00
2018-07-03T03:52:00.266Z,99566.00
2018-07-03T03:54:04.719Z,99568.00
2018-07-03T03:56:09.249Z,99568.00
2018-07-03T03:58:13.740Z,99571.00
2018-07-03T04:00:18.245Z,99578.00
2018-07-03T04:02:22.751Z,99569.00
2018-07-03T04:04:27.422Z,99575.00
2018-07-03T04:06:32.107Z,99575.00
2018-07-03T04:08:36.998Z,99577.00
2018-07-03T04:10:42.385Z,99571.00
2018-07-03T04:12:46.902Z,99586.00
2018-07-03T04:14:51.680Z,99580.00
2018-07-03T04:16:56.393Z,99579.00
2018-07-03T04:19:01.257Z,99588.00
2018-07-03T04:21:07.086Z,99586.00
2018-07-03T04:23:11.873Z,99577.00
2018-07-03T04:25:16.506Z,99574.00
2018-07-03T04:27:21.148Z,99568.00
2018-07-03T04:29:26.892Z,99581.00
2018-07-03T04:31:32.072Z,99561.00
2018-07-03T04:33:36.646Z,99573.00
2018-07-03T04:35:44.678Z,99577.00
2018-07-03T04:37:49.894Z,99590.00
2018-07-03T04:39:54.375Z,99583.00
2018-07-03T04:41:58.997Z,99576.00
2018-07-03T04:44:03.681Z,99581.00
2018-07-03T04:46:08.208Z,99578.00
2018-07-03T04:48:12.820Z,99578.00
2018-07-03T04:50:17.405Z,99566.00
2018-07-03T04:52:22.129Z,99574.00
2018-07-03T04:54:26.833Z,99588.00
2018-07-03T04:56:32.121Z,99584.00
2018-07-03T04:58:36.607Z,99584.00
2018-07-03T05:00:41.090Z,99584.00
2018-07-03T05:02:45.690Z,99584.00
2018-07-03T05:04:50.157Z,99582.00
2018-07-03T05:06:54.904Z,99581.00
2018-07-03T05:08:59.942Z,99589.00
2018-07-03T05:11:07.181Z,99593.00
2018-07-03T05:13:12.340Z,99582.00
2018-07-03T05:15:16.753Z,99596.00
2018-07-03T05:17:22.209Z,99602.00
2018-07-03T05:19:28.870Z,99603.00
2018-07-03T05:21:33.406Z,99593.00
2018-07-03T05:23:37.864Z,99601.00
2018-07-03T05:25:42.346Z,99606.00
2018-07-03T05:27:46.902Z,99600.00
2018-07-03T05:29:52.474Z,99613.00
2018-07-03T05:31:57.015Z,99609.00
2018-07-03T05:34:01.565Z,99609.00
2018-07-03T05:36:06.155Z,99610.00
2018-07-03T05:38:10.597Z,99603.00
2018-07-03T05:40:15.029Z,99608.00
2018-07-03T05:42:19.512Z,99598.00
2018-07-03T05:44:24.039Z,99597.00
2018-07-03T05:46:28.510Z,99605.00
2018-07-03T05:48:33.048Z,99608.00
2018-07-03T05:50:37.189Z,99609.00
2018-07-03T05:52:41.696Z,99614.00
2018-07-03T05:54:46.109Z,99611.00
2018-07-03T05:56:50.527Z,99617.00
2018-07-03T05:58:55.090Z,99612.00
2018-07-03T06:00:59.559Z,99621.00
2018-07-03T06:03:04.085Z,99622.00
2018-07-03T06:05:08.552Z,99613.00
2018-07-03T06:07:13.035Z,99614.00
2018-07-03T06:09:17.565Z,99614.00
2018-07-03T06:11:22.020Z,99611.00
2018-07-03T06:13:26.504Z,99616.00
2018-07-03T06:15:30.950Z,99612.00
2018-07-03T06:17:35.531Z,99621.00
2018-07-03T06:19:39.952Z,99617.00
2018-07-03T06:21:44.474Z,99616.00
2018-07-03T06:23:49.087Z,99618.00
2018-07-03T06:25:53.880Z,99621.00
2018-07-03T06:27:58.617Z,99617.00
2018-07-03T06:30:03.174Z,99610.00
2018-07-03T06:32:08.384Z,99608.00
2018-07-03T06:34:14.012Z,99606.00
2018-07-03T06:36:18.454Z,99610.00
2018-07-03T06:38:22.906Z,99611.00
2018-07-03T06:40:27.359Z,99604.00
2018-07-03T06:42:31.802Z,99606.00
2018-07-03T06:44:36.442Z,99607.00
2018-07-03T06:46:40.905Z,99598.00
2018-07-03T06:48:45.418Z,99600.00
2018-07-03T06:50:49.843Z,99598.00
2018-07-03T06:52:54.095Z,99597.00
2018-07-03T06:54:58.532Z,99596.00
2018-07-03T06:57:02.988Z,99594.00
2018-07-03T06:59:07.530Z,99597.00
2018-07-03T07:01:12.043Z,99603.00
2018-07-03T07:03:16.553Z,99599.00
2018-07-03T07:05:21.016Z,99604.00
2018-07-03T07:07:25.503Z,99598.00
2018-07-03T07:09:29.983Z,99602.00
2018-07-03T07:11:34.531Z,99599.00
2018-07-03T07:13:39.112Z,99600.00
2018-07-03T07:15:43.803Z,99597.00
2018-07-03T07:17:48.284Z,99595.00
2018-07-03T07:19:53.889Z,99600.00
2018-07-03T07:21:58.351Z,99598.00
2018-07-03T07:24:03.138Z,99601.00
2018-07-03T07:26:07.757Z,99599.00
2018-07-03T07:28:12.158Z,99593.00
2018-07-03T07:30:16.819Z,99593.00
2018-07-03T07:32:23.228Z,99602.00
2018-07-03T07:34:29.952Z,99589.00
2018-07-03T07:36:37.700Z,99587.00
2018-07-03T07:38:44.745Z,99589.00
2018-07-03T07:40:51.306Z,99595.00
2018-07-03T07:42:58.681Z,99582.00
2018-07-03T07:45:03.184Z,99589.00
2018-07-03T07:47:10.310Z,99580.00
2018-07-03T07:49:16.853Z,99586.00
2018-07-03T07:51:21.346Z,99591.00
2018-07-03T07:53:25.767Z,99577.00
2018-07-03T07:55:30.529Z,99574.00
2018-07-03T07:57:35.015Z,99578.00
2018-07-03T07:59:39.458Z,99575.00
2018-07-03T08:01:43.902Z,99577.00
2018-07-03T08:03:48.396Z,99576.00
2018-07-03T08:05:52.886Z,99569.00
2018-07-03T08:07:57.308Z,99571.00
2018-07-03T08:10:01.779Z,99572.00
2018-07-03T08:12:06.432Z,99567.00
2018-07-03T08:14:10.886Z,99566.00
2018-07-03T08:16:15.358Z,99573.00
2018-07-03T08:18:20.234Z,99575.00
2018-07-03T08:20:24.862Z,99575.00
2018-07-03T08:22:29.456Z,99576.00
2018-07-03T08:24:34.916Z,99570.00
2018-07-03T08:26:39.460Z,99577.00
2018-07-03T08:28:44.081Z,99573.00
2018-07-03T08:30:48.564Z,99586.00
2018-07-03T08:32:53.146Z,99587.00
2018-07-03T08:34:57.644Z,99580.00
2018-07-03T08:37:02.344Z,99573.00
2018-07-03T08:39:09.889Z,99579.00
2018-07-03T08:41:15.078Z,99582.00
2018-07-03T08:43:19.547Z,99579.00
2018-07-03T08:45:24.217Z,99581.00
2018-07-03T08:47:28.675Z,99593.00
2018-07-03T08:49:33.695Z,99581.00
2018-07-03T08:51:38.604Z,99587.00
2018-07-03T08:53:43.048Z,99583.00
2018-07-03T08:55:47.593Z,99587.00
2018-07-03T08:57:52.086Z,99584.00
2018-07-03T08:59:56.573Z,99588.00
2018-07-03T09:02:01.126Z,99589.00
2018-07-03T09:04:05.690Z,99598.00
2018-07-03T09:06:10.247Z,99596.00
2018-07-03T09:08:15.359Z,99595.00
2018-07-03T09:10:19.838Z,99588.00
2018-07-03T09:12:24.353Z,99579.00
2018-07-03T09:14:28.892Z,99587.00
2018-07-03T09:16:33.391Z,99595.00
2018-07-03T09:18:37.894Z,99585.00
2018-07-03T09:20:42.379Z,99582.00
2018-07-03T09:22:46.946Z,99584.00
2018-07-03T09:24:51.502Z,99581.00
2018-07-03T09:26:55.983Z,99578.00
2018-07-03T09:29:00.499Z,99580.00
2018-07-03T09:31:04.968Z,99575.00
2018-07-03T09:33:09.426Z,99578.00
2018-07-03T09:35:13.914Z,99575.00
2018-07-03T09:37:19.020Z,99582.00
2018-07-03T09:39:23.550Z,99581.00
2018-07-03T09:41:28.016Z,99580.00
2018-07-03T09:43:32.611Z,99577.00
2018-07-03T09:45:37.124Z,99572.00
2018-07-03T09:47:41.590Z,99564.00
2018-07-03T09:49:46.058Z,99567.00
2018-07-03T09:51:50.558Z,99566.00
2018-07-03T09:53:56.175Z,99572.00
2018-07-03T09:56:00.751Z,99577.00
2018-07-03T09:58:05.223Z,99579.00
2018-07-03T10:00:09.802Z,99578.00
2018-07-03T10:02:14.243Z,99578.00
2018-07-03T10:04:18.786Z,99576.00
2018-07-03T10:06:23.318Z,99580.00
2018-07-03T10:08:30.204Z,99569.00
2018-07-03T10:10:34.702Z,99570.00
2018-07-03T10:12:38.859Z,99583.00
2018-07-03T10:14:43.454Z,99573.00
2018-07-03T10:16:47.994Z,99569.00
2018-07-03T10:18:52.502Z,99580.00
2018-07-03T10:20:56.986Z,99578.00
2018-07-03T10:23:04.190Z,99575.00
2018-07-03T10:25:08.672Z,99580.00
2018-07-03T10:27:13.179Z,99579.00
2018-07-03T10:29:18.611Z,99587.00
2018-07-03T10:31:28.064Z,99575.00
2018-07-03T10:33:37.889Z,99579.00
2018-07-03T10:35:45.475Z,99578.00
2018-07-03T10:37:49.943Z,99571.00
2018-07-03T10:39:54.423Z,99568.00
2018-07-03T10:42:00.580Z,99571.00
2018-07-03T10:44:05.114Z,99570.00
2018-07-03T10:46:09.797Z,99572.00
2018-07-03T10:48:14.263Z,99562.00
2018-07-03T10:50:18.743Z,99566.00
2018-07-03T10:52:23.267Z,99567.00
2018-07-03T10:54:27.691Z,99563.00
2018-07-03T10:56:32.186Z,99571.00
2018-07-03T10:58:36.743Z,99569.00
2018-07-03T11:00:41.356Z,99569.00
2018-07-03T11:02:45.881Z,99561.00
2018-07-03T11:04:51.332Z,99560.00
2018-07-03T11:06:55.809Z,99561.00
2018-07-03T11:09:00.307Z,99562.00
2018-07-03T11:11:04.788Z,99563.00
2018-07-03T11:13:09.274Z,99557.00
2018-07-03T11:15:13.703Z,99553.00
2018-07-03T11:17:18.744Z,99551.00
2018-07-03T11:19:23.293Z,99557.00
2018-07-03T11:21:27.753Z,99551.00
2018-07-03T11:23:32.179Z,99548.00
2018-07-03T11:25:36.606Z,99561.00
2018-07-03T11:27:41.152Z,99549.00
2018-07-03T11:29:45.659Z,99550.00
2018-07-03T11:31:50.201Z,99545.00
2018-07-03T11:33:54.636Z,99543.00
2018-07-03T11:35:59.135Z,99548.00
2018-07-03T11:38:03.622Z,99540.00
2018-07-03T11:40:08.142Z,99555.00
2018-07-03T11:42:12.648Z,99547.00
2018-07-03T11:44:17.083Z,99543.00
2018-07-03T11:46:21.588Z,99535.00
2018-07-03T11:48:26.157Z,99538.00
2018-07-03T11:50:30.760Z,99536.00
2018-07-03T11:52:35.580Z,99530.00
2018-07-03T11:54:40.023Z,99527.00
2018-07-03T11:56:44.750Z,99534.00
2018-07-03T11:58:49.222Z,99534.00
2018-07-03T12:00:53.695Z,99532.00
2018-07-03T12:02:59.228Z,99540.00
2018-07-03T12:05:03.778Z,99534.00
2018-07-03T12:07:08.317Z,99525.00
2018-07-03T12:09:12.779Z,99526.00
2018-07-03T12:11:17.271Z,99522.00
2018-07-03T12:13:21.832Z,99524.00
2018-07-03T12:15:26.262Z,99512.00
2018-07-03T12:17:31.021Z,99516.00
2018-07-03T12:19:35.629Z,99513.00
2018-07-03T12:21:40.064Z,99520.00
2018-07-03T12:23:44.591Z,99519.00
2018-07-03T12:25:49.064Z,99511.00
2018-07-03T12:27:53.642Z,99515.00
2018-07-03T12:29:59.306Z,99506.00
2018-07-03T12:32:03.838Z,99501.00
2018-07-03T12:34:08.286Z,99501.00
2018-07-03T12:36:12.962Z,99508.00
2018-07-03T12:38:17.446Z,99510.00
2018-07-03T12:40:21.928Z,99512.00
2018-07-03T12:42:26.417Z,99512.00
2018-07-03T12:44:30.926Z,99504.00
2018-07-03T12:46:35.408Z,99497.00
2018-07-03T12:48:39.955Z,99501.00
2018-07-03T12:50:44.503Z,99500.00
2018-07-03T12:52:49.033Z,99501.00
2018-07-03T12:54:53.530Z,99495.00
2018-07-03T12:56:58.668Z,99496.00
2018-07-03T12:59:03.215Z,99493.00
2018-07-03T13:01:07.759Z,99496.00
2018-07-03T13:03:12.231Z,99498.00
2018-07-03T13:05:16.781Z,99499.00
2018-07-03T13:07:21.270Z,99500.00
2018-07-03T13:09:25.799Z,99498.00
2018-07-03T13:11:30.229Z,99502.00
2018-07-03T13:13:34.779Z,99493.00
2018-07-03T13:15:40.443Z,99500.00
2018-07-03T13:17:45.006Z,99495.00
2018-07-03T13:19:49.479Z,99500.00
2018-07-03T13:21:53.971Z,99489.00
2018-07-03T13:23:58.505Z,99488.00
2018-07-03T13:26:03.066Z,99486.00
2018-07-03T13:28:07.615Z,99486.00
2018-07-03T13:30:12.064Z,99486.00
2018-07-03T13:32:16.562Z,99482.00
2018-07-03T13:34:21.130Z,99484.00
2018-07-03T13:36:25.740Z,99486.00
2018-07-03T13:38:30.323Z,99481.00
2018-07-03T13:40:34.902Z,99480.00
2018-07-03T13:42:39.706Z,99480.00
2018-07-03T13:44:44.171Z,99478.00
2018-07-03T13:46:48.587Z,99483.00
2018-07-03T13:48:53.111Z,99487.00
2018-07-03T13:50:57.569Z,99483.00
2018-07-03T13:53:02.119Z,99474.00
2018-07-03T13:55:06.961Z,99479.00
2018-07-03T13:57:11.386Z,99484.00
2018-07-03T13:59:15.900Z,99480.00
2018-07-03T14:01:20.104Z,99470.00
2018-07-03T14:03:24.505Z,99472.00
2018-07-03T14:05:28.975Z,99475.00
2018-07-03T14:07:33.449Z,99473.00
2018-07-03T14:09:37.943Z,99471.00
2018-07-03T14:11:42.437Z,99468.00
2018-07-03T14:13:46.915Z,99469.00
2018-07-03T14:15:51.439Z,99472.00
2018-07-03T14:17:56.250Z,99476.00
2018-07-03T14:20:01.126Z,99469.00
2018-07-03T14:22:05.585Z,99468.00
2018-07-03T14:24:10.127Z,99463.00
2018-07-03T14:26:14.611Z,99467.00
2018-07-03T14:28:20.156Z,99461.00
2018-07-03T14:30:24.710Z,99458.00
2018-07-03T14:32:29.159Z,99450.00
2018-07-03T14:34:33.631Z,99463.00
2018-07-03T14:36:38.079Z,99462.00
2018-07-03T14:38:42.539Z,99461.00
2018-07-03T14:40:47.065Z,99461.00
2018-07-03T14:42:51.522Z,99459.00
2018-07-03T14:44:56.023Z,99458.00
2018-07-03T14:47:00.486Z,99451.00
2018-07-03T14:49:05.393Z,99461.00
2018-07-03T14:51:09.889Z,99458.00
2018-07-03T14:53:14.331Z,99456.00
2018-07-03T14:55:18.794Z,99459.00
2018-07-03T14:57:23.310Z,99449.00
2018-07-03T14:59:27.759Z,99449.00
2018-07-03T15:01:32.202Z,99449.00
2018-07-03T15:03:36.717Z,99453.00
2018-07-03T15:05:41.178Z,99449.00
2018-07-03T15:07:45.916Z,99441.00
2018-07-03T15:09:50.083Z,99444.00
2018-07-03T15:11:54.490Z,99432.00
2018-07-03T15:13:59.047Z,99443.00
2018-07-03T15:16:03.572Z,99442.00
2018-07-03T15:18:12.531Z,99448.00
2018-07-03T15:20:18.175Z,99431.00
2018-07-03T15:22:22.600Z,99440.00
2018-07-03T15:24:27.098Z,99437.00
2018-07-03T15:26:31.604Z,99435.00
2018-07-03T15:28:36.092Z,99438.00
2018-07-03T15:30:40.894Z,99431.00
2018-07-03T15:32:45.408Z,99434.00
2018-07-03T15:34:49.888Z,99431.00
2018-07-03T15:36:54.462Z,99435.00
2018-07-03T15:39:00.740Z,99428.00
2018-07-03T15:41:05.284Z,99437.00
2018-07-03T15:43:09.791Z,99440.00
2018-07-03T15:45:15.134Z,99432.00
2018-07-03T15:47:19.589Z,99421.00
2018-07-03T15:49:24.050Z,99427.00
2018-07-03T15:51:29.152Z,99419.00
2018-07-03T15:53:33.670Z,99426.00
2018-07-03T15:55:38.181Z,99426.00
2018-07-03T15:57:42.619Z,99428.00
2018-07-03T15:59:47.162Z,99423.00
2018-07-03T16:01:51.478Z,99427.00
2018-07-03T16:04:12.799Z,99413.00
2018-07-03T16:06:34.205Z,99413.00
2018-07-03T16:09:17.088Z,99411.00
2018-07-03T16:11:21.899Z,99405.00
2018-07-03T16:13:26.825Z,99405.00
2018-07-03T16:15:31.401Z,99401.00
2018-07-03T16:17:36.013Z,99405.00
2018-07-03T16:19:46.846Z,99408.00
2018-07-03T16:21:51.629Z,99414.00
2018-07-03T16:23:58.168Z,99409.00
2018-07-03T16:26:02.828Z,99400.00
2018-07-03T16:28:07.589Z,99405.00
2018-07-03T16:30:13.398Z,99409.00
2018-07-03T16:32:17.797Z,99396.00
2018-07-03T16:34:22.612Z,99390.00
2018-07-03T16:36:27.250Z,99395.00
2018-07-03T16:38:31.926Z,99398.00
2018-07-03T16:40:36.429Z,99403.00
2018-07-03T16:42:42.413Z,99399.00
2018-07-03T16:44:48.004Z,99399.00
2018-07-03T16:46:52.652Z,99392.00
2018-07-03T16:48:57.241Z,99388.00
2018-07-03T16:51:03.311Z,99387.00
2018-07-03T16:53:07.846Z,99394.00
2018-07-03T16:55:12.505Z,99400.00
2018-07-03T16:57:17.577Z,99390.00
2018-07-03T16:59:22.078Z,99392.00
2018-07-03T17:01:26.634Z,99397.00
2018-07-03T17:03:32.143Z,99398.00
2018-07-03T17:05:37.838Z,99390.00
2018-07-03T17:07:42.337Z,99392.00
2018-07-03T17:09:47.803Z,99392.00
2018-07-03T17:11:52.895Z,99392.00
2018-07-03T17:13:57.698Z,99393.00
2018-07-03T17:16:02.336Z,99400.00
2018-07-03T17:18:06.879Z,99397.00
2018-07-03T17:20:11.294Z,99393.00
2018-07-03T17:22:15.900Z,99394.00
2018-07-03T17:24:20.370Z,99392.00
2018-07-03T17:26:24.899Z,99392.00
2018-07-03T17:28:29.381Z,99392.00
2018-07-03T17:30:33.791Z,99381.00
2018-07-03T17:32:38.585Z,99384.00
2018-07-03T17:34:43.214Z,99387.00
2018-07-03T17:36:47.380Z,99389.00
2018-07-03T17:38:51.992Z,99387.00
2018-07-03T17:41:13.317Z,99390.00
2018-07-03T17:44:05.321Z,99376.00
2018-07-03T17:46:11.017Z,99371.00
2018-07-03T17:48:16.477Z,99381.00
2018-07-03T17:50:20.946Z,99374.00
2018-07-03T17:52:25.785Z,99375.00
2018-07-03T17:54:30.404Z,99374.00
2018-07-03T17:56:35.180Z,99369.00
2018-07-03T17:58:39.656Z,99370.00
2018-07-03T18:00:44.247Z,99360.00
2018-07-03T18:02:49.312Z,99361.00
2018-07-03T18:04:53.794Z,99363.00
2018-07-03T18:06:58.765Z,99354.00
2018-07-03T18:09:04.371Z,99356.00
2018-07-03T18:11:09.261Z,99353.00
2018-07-03T18:13:13.881Z,99352.00
2018-07-03T18:15:18.411Z,99350.00
2018-07-03T18:17:23.588Z,99351.00
2018-07-03T18:19:33.361Z,99360.00
2018-07-03T18:21:37.906Z,99353.00
2018-07-03T18:23:43.347Z,99353.00
2018-07-03T18:25:47.830Z,99364.00
2018-07-03T18:27:52.908Z,99362.00
2018-07-03T18:29:57.810Z,99360.00
2018-07-03T18:32:03.395Z,99363.00
2018-07-03T18:34:07.840Z,99365.00
2018-07-03T18:36:12.360Z,99369.00
2018-07-03T18:38:17.158Z,99365.00
2018-07-03T18:40:22.244Z,99366.00
2018-07-03T18:42:26.753Z,99369.00
2018-07-03T18:44:31.226Z,99368.00
2018-07-03T18:46:36.022Z,99378.00
2018-07-03T18:48:40.554Z,99377.00
2018-07-03T18:50:45.088Z,99377.00
2018-07-03T18:52:49.555Z,99379.00
2018-07-03T18:54:54.139Z,99377.00
2018-07-03T18:57:01.135Z,99375.00
2018-07-03T18:59:06.070Z,99379.00
2018-07-03T19:01:10.990Z,99380.00
2018-07-03T19:03:15.513Z,99387.00
2018-07-03T19:05:20.796Z,99381.00
2018-07-03T19:07:25.271Z,99383.00
2018-07-03T19:09:30.118Z,99389.00
2018-07-03T19:11:34.768Z,99393.00
2018-07-03T19:13:39.282Z,99390.00
2018-07-03T19:15:44.501Z,99393.00
2018-07-03T19:17:49.026Z,99396.00
2018-07-03T19:19:54.094Z,99397.00
2018-07-03T19:21:58.761Z,99399.00
2018-07-03T19:24:04.223Z,99401.00
2018-07-03T19:26:09.094Z,99400.00
2018-07-03T19:28:13.710Z,99402.00
2018-07-03T19:30:18.304Z,99392.00
2018-07-03T19:32:22.866Z,99395.00
2018-07-03T19:34:27.376Z,99401.00
2018-07-03T19:36:32.285Z,99400.00
2018-07-03T19:38:36.784Z,99395.00
2018-07-03T19:40:41.277Z,99400.00
2018-07-03T19:43:31.960Z,99406.00
2018-07-03T19:45:36.429Z,99404.00
2018-07-03T19:47:41.000Z,99407.00
2018-07-03T19:49:46.024Z,99410.00
2018-07-03T19:51:50.514Z,99407.00
2018-07-03T19:53:55.011Z,99411.00
2018-07-03T19:56:00.501Z,99416.00
2018-07-03T19:58:05.461Z,99411.00
2018-07-03T20:00:09.811Z,99410.00
2018-07-03T20:02:15.303Z,99416.00
2018-07-03T20:04:20.622Z,99420.00
2018-07-03T20:06:25.382Z,99414.00
2018-07-03T20:08:29.858Z,99409.00
2018-07-03T20:10:34.489Z,99413.00
2018-07-03T20:12:38.957Z,99418.00
2018-07-03T20:14:43.400Z,99411.00
2018-07-03T20:16:47.894Z,99417.00
2018-07-03T20:18:52.415Z,99418.00
2018-07-03T20:20:57.135Z,99420.00
2018-07-03T20:23:05.410Z,99417.00
2018-07-03T20:25:11.739Z,99423.00
2018-07-03T20:27:19.180Z,99423.00
2018-07-03T20:29:23.994Z,99424.00
2018-07-03T20:31:30.447Z,99431.00
2018-07-03T20:33:35.115Z,99430.00
2018-07-03T20:35:39.579Z,99426.00
2018-07-03T20:37:55.570Z,99423.00
2018-07-03T20:40:00.026Z,99437.00
2018-07-03T20:42:05.303Z,99437.00
2018-07-03T20:44:09.804Z,99431.00
2018-07-03T20:46:16.609Z,99434.00
2018-07-03T20:48:23.097Z,99440.00
2018-07-03T20:50:27.526Z,99435.00
2018-07-03T20:52:33.441Z,99438.00
2018-07-03T20:54:37.955Z,99442.00
2018-07-03T20:56:42.404Z,99440.00
2018-07-03T20:58:46.857Z,99442.00
2018-07-03T21:00:53.740Z,99447.00
2018-07-03T21:02:58.169Z,99453.00
2018-07-03T21:05:02.746Z,99449.00
2018-07-03T21:07:06.834Z,99437.00
2018-07-03T21:09:11.657Z,99447.00
2018-07-03T21:11:16.112Z,99446.00
2018-07-03T21:13:20.567Z,99436.00
2018-07-03T21:15:25.798Z,99442.00
2018-07-03T21:17:30.326Z,99447.00
2018-07-03T21:19:34.756Z,99441.00
2018-07-03T21:21:39.231Z,99439.00
2018-07-03T21:23:43.776Z,99445.00
2018-07-03T21:25:48.230Z,99442.00
2018-07-03T21:27:52.682Z,99441.00
2018-07-03T21:29:57.166Z,99435.00
2018-07-03T21:32:01.952Z,99433.00
2018-07-03T21:34:06.707Z,99431.00
2018-07-03T21:36:11.441Z,99430.00
2018-07-03T21:38:15.971Z,99428.00
2018-07-03T21:40:20.461Z,99439.00
2018-07-03T21:42:26.102Z,99438.00
2018-07-03T21:44:30.595Z,99441.00
2018-07-03T21:46:35.045Z,99430.00
2018-07-03T21:48:39.489Z,99428.00
2018-07-03T21:50:43.931Z,99424.00
2018-07-03T21:52:48.366Z,99432.00
2018-07-03T21:54:52.845Z,99430.00
2018-07-03T21:56:57.296Z,99423.00
2018-07-03T21:59:01.774Z,99432.00
2018-07-03T22:01:06.382Z,99437.00
2018-07-03T22:03:11.906Z,99430.00
2018-07-03T22:05:16.441Z,99438.00
2018-07-03T22:07:20.885Z,99437.00
2018-07-03T22:09:26.450Z,99448.00
2018-07-03T22:11:30.889Z,99444.00
2018-07-03T22:13:35.341Z,99442.00
2018-07-03T22:15:40.798Z,99441.00
2018-07-03T22:17:45.258Z,99444.00
2018-07-03T22:19:49.738Z,99448.00
2018-07-03T22:21:54.514Z,99442.00
2018-07-03T22:23:59.158Z,99454.00
2018-07-03T22:26:03.601Z,99447.00
2018-07-03T22:28:08.017Z,99449.00
2018-07-03T22:30:12.179Z,99442.00
2018-07-03T22:32:16.599Z,99438.00
2018-07-03T22:34:21.113Z,99442.00
2018-07-03T22:36:26.638Z,99441.00
2018-07-03T22:38:31.330Z,99447.00
2018-07-03T22:40:35.798Z,99448.00
2018-07-03T22:42:40.223Z,99451.00
2018-07-03T22:44:44.787Z,99445.00
2018-07-03T22:46:49.611Z,99444.00
2018-07-03T22:48:54.051Z,99450.00
2018-07-03T22:50:58.515Z,99450.00
2018-07-03T22:53:02.935Z,99453.00
2018-07-03T22:55:09.184Z,99453.00
2018-07-03T22:57:13.644Z,99446.00
2018-07-03T22:59:18.058Z,99448.00
2018-07-03T23:01:22.535Z,99457.00
2018-07-03T23:03:27.306Z,99449.00
2018-07-03T23:05:31.806Z,99446.00
2018-07-03T23:07:36.289Z,99437.00
2018-07-03T23:09:41.098Z,99446.00
2018-07-03T23:11:45.660Z,99440.00
2018-07-03T23:13:50.157Z,99441.00
2018-07-03T23:15:54.614Z,99440.00
2018-07-03T23:17:59.115Z,99432.00
2018-07-03T23:20:03.631Z,99439.00
2018-07-03T23:22:08.072Z,99449.00
2018-07-03T23:24:12.710Z,99447.00
2018-07-03T23:26:17.609Z,99437.00
2018-07-03T23:28:22.010Z,99439.00
2018-07-03T23:30:27.793Z,99440.00
2018-07-03T23:32:32.244Z,99439.00
2018-07-03T23:34:36.693Z,99437.00
2018-07-03T23:38:48.694Z,99437.00
2018-07-03T23:40:53.273Z,99441.00
2018-07-03T23:42:57.722Z,99438.00
2018-07-03T23:45:02.153Z,99440.00
2018-07-03T23:47:24.637Z,99428.00
2018-07-03T23:49:45.943Z,99437.00
2018-07-03T23:52:07.282Z,99440.00
2018-07-03T23:54:28.666Z,99440.00
2018-07-03T23:56:50.088Z,99438.00
2018-07-03T23:59:11.270Z,99435.00
